Time;durP1;ratioP1;P1;durP2;ratioP2;P2;SDS_P1;SDS_P2;PMS_P1;PMS_P2;Temp;Humidity;BMP_temperature;BMP_pressure;BME280_temperature;BME280_humidity;BME280_pressure;Samples;Min_cycle;Max_cycle;Signal;HPM_P1;HPM_P2
2023/12/06 00:01:48;;;;;;;1.10;1.00;;;0.80;99.90;;;;;;5114552;28;20122;-70
2023/12/06 00:04:14;;;;;;;3.15;2.92;;;0.80;99.90;;;;;;5114516;28;20043;-70
2023/12/06 00:06:39;;;;;;;1.23;1.13;;;0.80;99.90;;;;;;5114816;28;20412;-70
2023/12/06 00:09:05;;;;;;;1.38;1.27;;;0.80;99.90;;;;;;5114674;28;20035;-70
2023/12/06 00:11:31;;;;;;;1.73;1.63;;;0.80;99.90;;;;;;5114626;28;20048;-70
2023/12/06 00:13:56;;;;;;;1.27;1.17;;;0.80;99.90;;;;;;5114392;28;20032;-70
2023/12/06 00:16:22;;;;;;;1.70;1.60;;;1.10;99.90;;;;;;5114350;28;20040;-70
2023/12/06 00:18:49;;;;;;;1.30;1.20;;;0.80;99.90;;;;;;5114000;28;20455;-70
2023/12/06 00:21:15;;;;;;;1.48;1.38;;;0.70;99.90;;;;;;5114641;28;20047;-70
2023/12/06 00:23:40;;;;;;;1.20;1.10;;;0.70;99.90;;;;;;5114321;28;20040;-70
2023/12/06 00:26:06;;;;;;;1.30;1.20;;;1.80;99.90;;;;;;5114472;28;20035;-70
2023/12/06 00:28:31;;;;;;;1.20;1.10;;;0.70;99.90;;;;;;5114192;28;20089;-70
2023/12/06 00:30:57;;;;;;;2.78;2.58;;;0.60;99.90;;;;;;5114447;28;20035;-70
2023/12/06 00:33:23;;;;;;;1.48;1.38;;;0.70;99.90;;;;;;5114474;28;20050;-70
2023/12/06 00:35:48;;;;;;;1.27;1.17;;;0.70;99.90;;;;;;5116434;28;20040;-70
2023/12/06 00:38:15;;;;;;;1.27;1.17;;;0.70;99.90;;;;;;5118736;28;20040;-71
2023/12/06 00:40:40;;;;;;;1.45;1.35;;;0.70;99.90;;;;;;5118599;28;20039;-70
2023/12/06 00:43:06;;;;;;;1.83;1.73;;;0.70;99.90;;;;;;5118445;28;20065;-70
2023/12/06 00:45:32;;;;;;;2.00;1.73;;;0.70;99.90;;;;;;5118407;27;20118;-70
2023/12/06 00:47:58;;;;;;;1.17;1.08;;;0.70;99.90;;;;;;5118794;28;20176;-71
2023/12/06 00:50:24;;;;;;;1.20;1.10;;;0.70;99.90;;;;;;5118188;28;20489;-71
2023/12/06 00:52:49;;;;;;;1.50;1.40;;;0.70;99.90;;;;;;5118153;28;20035;-70
2023/12/06 00:55:15;;;;;;;1.92;1.83;;;0.70;99.90;;;;;;5118527;28;20071;-73
2023/12/06 00:57:40;;;;;;;3.65;3.30;;;0.80;99.90;;;;;;5118038;28;20050;-70
2023/12/06 01:00:07;;;;;;;1.67;1.58;;;0.80;99.90;;;;;;5118022;28;20031;-71
2023/12/06 01:02:32;;;;;;;1.10;1.00;;;0.70;99.90;;;;;;5117936;28;20040;-70
2023/12/06 01:04:58;;;;;;;1.30;1.20;;;0.70;99.90;;;;;;5117931;28;20383;-70
2023/12/06 01:07:24;;;;;;;3.15;2.95;;;0.70;99.90;;;;;;5117877;28;20038;-70
2023/12/06 01:09:49;;;;;;;3.22;1.95;;;0.70;99.90;;;;;;5118090;28;20088;-70
2023/12/06 01:12:15;;;;;;;1.52;1.42;;;0.80;99.90;;;;;;5117786;28;20420;-70
2023/12/06 01:14:41;;;;;;;2.10;1.40;;;0.80;99.90;;;;;;5117756;27;20043;-70
2023/12/06 01:17:06;;;;;;;1.50;1.40;;;0.80;99.90;;;;;;5117642;28;20101;-70
2023/12/06 01:19:32;;;;;;;1.70;1.33;;;0.80;99.90;;;;;;5117428;28;20036;-70
2023/12/06 01:21:58;;;;;;;1.40;1.30;;;0.80;99.90;;;;;;5117967;28;20039;-70
2023/12/06 01:24:24;;;;;;;1.40;1.30;;;0.80;99.90;;;;;;5117598;28;20044;-70
2023/12/06 01:26:50;;;;;;;1.30;1.20;;;0.80;99.90;;;;;;5117570;28;20570;-70
2023/12/06 01:29:15;;;;;;;1.30;1.20;;;0.80;99.90;;;;;;5117578;28;20039;-70
2023/12/06 01:31:41;;;;;;;1.10;1.02;;;0.80;99.90;;;;;;5117370;28;20383;-70
2023/12/06 01:34:07;;;;;;;1.73;1.63;;;0.80;99.90;;;;;;5117354;28;20471;-70
2023/12/06 01:36:34;;;;;;;8.43;4.93;;;0.70;99.90;;;;;;5117316;28;20066;-70
2023/12/06 01:39:00;;;;;;;;;;;0.80;99.90;;;;;;5117693;28;20040;-70
2023/12/06 01:41:25;;;;;;;2.38;2.17;;;0.80;99.90;;;;;;5117538;28;19938;-70
2023/12/06 01:43:51;;;;;;;2.75;2.35;;;0.80;99.90;;;;;;5116972;28;20043;-70
2023/12/06 01:46:16;;;;;;;6.95;4.43;;;0.80;99.90;;;;;;5116224;28;20075;-70
2023/12/06 01:48:43;;;;;;;1.30;1.20;;;0.80;99.90;;;;;;5116992;28;20040;-70
2023/12/06 01:51:09;;;;;;;1.58;1.40;;;0.80;99.90;;;;;;5117039;28;20036;-70
2023/12/06 01:53:35;;;;;;;1.30;1.20;;;0.80;99.90;;;;;;5116977;28;20112;-70
2023/12/06 01:56:02;;;;;;;1.63;1.53;;;0.80;99.90;;;;;;5117017;28;20047;-70
2023/12/06 01:58:28;;;;;;;1.00;0.95;;;0.80;99.90;;;;;;5116647;28;20087;-70
2023/12/06 02:00:55;;;;;;;1.33;1.23;;;0.90;99.90;;;;;;5115693;28;20126;-70
2023/12/06 02:03:21;;;;;;;1.40;1.30;;;0.90;99.90;;;;;;5116882;28;20096;-70
2023/12/06 02:05:47;;;;;;;1.30;1.20;;;0.90;99.90;;;;;;5117178;28;20043;-70
2023/12/06 02:08:13;;;;;;;4.10;2.22;;;0.90;99.90;;;;;;5116775;28;20172;-70
2023/12/06 02:10:39;;;;;;;1.20;1.10;;;0.90;99.90;;;;;;5116755;28;20196;-71
2023/12/06 02:13:04;;;;;;;1.20;1.10;;;0.90;99.90;;;;;;5115410;28;20036;-70
2023/12/06 02:15:30;;;;;;;1.30;1.20;;;1.00;99.90;;;;;;5116551;28;20032;-70
2023/12/06 02:17:56;;;;;;;1.40;1.30;;;1.00;99.90;;;;;;5116533;27;20043;-70
2023/12/06 02:20:24;;;;;;;1.23;1.13;;;1.00;99.90;;;;;;5116555;28;20058;-71
2023/12/06 02:22:51;;;;;;;3.30;3.10;;;1.00;99.90;;;;;;5116473;28;20039;-70
2023/12/06 02:25:17;;;;;;;1.35;1.25;;;1.00;99.90;;;;;;5116359;28;20043;-70
2023/12/06 02:27:44;;;;;;;2.67;2.03;;;2.10;99.90;;;;;;5116068;28;20490;-70
2023/12/06 02:30:11;;;;;;;1.65;1.55;;;1.10;99.90;;;;;;5115966;28;20439;-70
2023/12/06 02:32:37;;;;;;;1.20;1.10;;;1.10;99.90;;;;;;5115240;28;20048;-70
2023/12/06 02:35:08;;;;;;;1.33;1.23;;;1.10;99.90;;;;;;5115047;28;20047;-70
2023/12/06 02:37:35;;;;;;;2.17;1.60;;;1.10;99.90;;;;;;5116030;28;20471;-70
2023/12/06 02:40:01;;;;;;;;;;;1.10;99.90;;;;;;5116644;28;20075;-71
2023/12/06 02:42:27;;;;;;;1.20;1.10;;;1.10;99.90;;;;;;5116012;28;19916;-70
2023/12/06 02:44:52;;;;;;;1.20;1.10;;;1.10;99.90;;;;;;5115986;28;20039;-70
2023/12/06 02:47:19;;;;;;;1.30;1.20;;;1.10;99.90;;;;;;5116467;28;20043;-71
2023/12/06 02:49:44;;;;;;;2.05;1.85;;;1.20;99.90;;;;;;5115818;28;20054;-70
2023/12/06 02:52:12;;;;;;;2.08;1.48;;;1.10;99.90;;;;;;5115676;28;20459;-70
2023/12/06 02:54:38;;;;;;;1.23;1.13;;;1.10;99.90;;;;;;5115579;28;20526;-70
2023/12/06 02:57:04;;;;;;;3.00;2.80;;;1.10;99.90;;;;;;5115632;27;20047;-70
2023/12/06 02:59:29;;;;;;;1.20;1.10;;;1.10;99.90;;;;;;5115345;28;20039;-70
2023/12/06 03:01:55;;;;;;;1.63;1.52;;;1.10;99.90;;;;;;5115736;28;20042;-70
2023/12/06 03:04:20;;;;;;;1.23;1.13;;;1.10;99.90;;;;;;5115707;28;20145;-70
2023/12/06 03:06:46;;;;;;;1.20;1.10;;;1.20;99.90;;;;;;5115369;28;20036;-70
2023/12/06 03:09:12;;;;;;;1.25;1.15;;;1.20;99.90;;;;;;5115486;28;20051;-70
2023/12/06 03:11:37;;;;;;;1.40;1.30;;;1.20;99.90;;;;;;5115545;28;20035;-70
2023/12/06 03:14:04;;;;;;;1.52;1.42;;;1.20;99.90;;;;;;5115455;28;20380;-71
2023/12/06 03:16:29;;;;;;;1.20;1.10;;;1.20;99.90;;;;;;5115801;28;20047;-70
2023/12/06 03:18:55;;;;;;;1.75;1.65;;;1.20;99.90;;;;;;5115299;28;20036;-70
2023/12/06 03:21:21;;;;;;;8.35;4.47;;;1.20;99.90;;;;;;5115288;27;20142;-70
2023/12/06 03:23:46;;;;;;;1.20;1.10;;;1.10;99.90;;;;;;5115466;28;20042;-71
2023/12/06 03:26:12;;;;;;;1.20;1.10;;;1.20;99.90;;;;;;5114987;28;20044;-70
2023/12/06 03:28:38;;;;;;;1.75;1.65;;;2.10;99.90;;;;;;5114967;28;20035;-70
2023/12/06 03:31:03;;;;;;;1.50;1.38;;;1.20;99.90;;;;;;5114777;28;20117;-70
2023/12/06 03:33:29;;;;;;;1.33;1.10;;;1.20;99.90;;;;;;5115126;28;20130;-70
2023/12/06 03:35:54;;;;;;;1.67;1.58;;;1.20;99.90;;;;;;5115277;28;20039;-70
2023/12/06 03:38:20;;;;;;;1.20;1.10;;;1.20;99.90;;;;;;5114931;28;20039;-70
2023/12/06 03:40:46;;;;;;;1.75;1.65;;;1.20;99.90;;;;;;5114962;28;20035;-71
2023/12/06 03:43:11;;;;;;;1.38;1.27;;;1.20;99.90;;;;;;5114739;28;20467;-70
2023/12/06 03:45:37;;;;;;;1.20;1.10;;;1.20;99.90;;;;;;5114948;28;20375;-70
2023/12/06 03:48:03;;;;;;;1.33;1.23;;;1.20;99.90;;;;;;5115416;28;20079;-70
2023/12/06 03:50:28;;;;;;;1.10;1.00;;;1.20;99.90;;;;;;5115185;28;20035;-70
2023/12/06 03:52:54;;;;;;;1.55;1.45;;;1.20;99.90;;;;;;5114337;28;20035;-70
2023/12/06 03:55:19;;;;;;;1.15;1.05;;;1.20;99.90;;;;;;5114824;28;20225;-70
2023/12/06 03:57:45;;;;;;;1.65;1.55;;;1.20;99.90;;;;;;5114535;28;20035;-70
2023/12/06 04:00:13;;;;;;;1.13;1.02;;;1.30;99.90;;;;;;5114490;28;20035;-70
2023/12/06 04:02:39;;;;;;;1.40;1.30;;;1.20;99.90;;;;;;5114553;28;20090;-70
2023/12/06 04:05:05;;;;;;;1.00;0.90;;;1.20;99.90;;;;;;5114490;28;20063;-70
2023/12/06 04:07:30;;;;;;;1.20;1.10;;;1.20;99.90;;;;;;5114436;28;20087;-70
2023/12/06 04:09:56;;;;;;;1.60;1.50;;;1.20;99.90;;;;;;5113873;28;20431;-70
2023/12/06 04:12:21;;;;;;;15.55;4.55;;;1.20;99.90;;;;;;5114399;28;20096;-70
2023/12/06 04:14:47;;;;;;;1.30;1.20;;;1.20;99.90;;;;;;5114248;28;20115;-70
2023/12/06 04:17:13;;;;;;;1.58;1.48;;;2.30;99.90;;;;;;5114241;28;20085;-70
2023/12/06 04:19:39;;;;;;;1.30;1.20;;;1.20;99.90;;;;;;5113991;28;20082;-70
2023/12/06 04:22:04;;;;;;;1.10;1.00;;;1.20;99.90;;;;;;5112715;28;20391;-70
2023/12/06 04:24:30;;;;;;;1.33;1.23;;;1.20;99.90;;;;;;5114174;28;20042;-70
2023/12/06 04:26:56;;;;;;;1.20;1.10;;;1.20;99.90;;;;;;5114279;28;20421;-70
2023/12/06 04:29:22;;;;;;;1.30;1.20;;;1.20;99.90;;;;;;5114143;28;20478;-70
2023/12/06 04:31:47;;;;;;;1.47;1.37;;;1.20;99.90;;;;;;5114136;28;20092;-70
2023/12/06 04:34:13;;;;;;;1.40;1.30;;;1.20;99.90;;;;;;5114126;28;20082;-70
2023/12/06 04:36:40;;;;;;;1.10;1.00;;;1.20;99.90;;;;;;5114108;28;20043;-70
2023/12/06 04:39:05;;;;;;;2.30;2.20;;;1.20;99.90;;;;;;5114259;28;20032;-70
2023/12/06 04:41:31;;;;;;;1.52;1.42;;;1.20;99.90;;;;;;5114122;28;20371;-70
2023/12/06 04:43:57;;;;;;;1.30;1.20;;;1.20;99.90;;;;;;5114015;28;20031;-70
2023/12/06 04:46:22;;;;;;;1.50;1.40;;;1.20;99.90;;;;;;5114154;28;20039;-70
2023/12/06 04:48:48;;;;;;;1.20;1.10;;;1.20;99.90;;;;;;5114065;28;20122;-71
2023/12/06 04:51:15;;;;;;;1.20;1.10;;;1.20;99.90;;;;;;5113781;28;20094;-70
2023/12/06 04:53:41;;;;;;;1.40;1.30;;;1.20;99.90;;;;;;5114171;28;20376;-70
2023/12/06 04:56:07;;;;;;;2.00;1.80;;;1.20;99.90;;;;;;5113913;28;20131;-70
2023/12/06 04:58:32;;;;;;;1.20;1.10;;;1.20;99.90;;;;;;5113987;28;20452;-70
2023/12/06 05:00:58;;;;;;;1.67;1.58;;;1.20;99.90;;;;;;5113399;28;20072;-70
2023/12/06 05:03:24;;;;;;;1.20;1.10;;;1.20;99.90;;;;;;5113842;28;20441;-70
2023/12/06 05:05:49;;;;;;;1.20;1.10;;;1.20;99.90;;;;;;5114157;28;20114;-70
2023/12/06 05:08:15;;;;;;;1.10;1.00;;;1.20;99.90;;;;;;5113924;28;20120;-70
2023/12/06 05:10:41;;;;;;;1.38;1.27;;;1.20;99.90;;;;;;5113930;28;20044;-70
2023/12/06 05:13:06;;;;;;;1.10;1.00;;;1.20;99.90;;;;;;5113654;28;20120;-70
2023/12/06 05:15:32;;;;;;;1.40;1.30;;;1.30;99.90;;;;;;5113747;28;20336;-70
2023/12/06 05:17:57;;;;;;;1.15;1.05;;;1.20;99.90;;;;;;5113347;28;20039;-70
2023/12/06 05:20:23;;;;;;;1.10;1.00;;;1.20;99.90;;;;;;5114020;28;20052;-70
2023/12/06 05:22:49;;;;;;;1.10;1.00;;;1.20;99.90;;;;;;5117572;28;20114;-70
2023/12/06 05:25:14;;;;;;;1.20;1.10;;;1.20;99.90;;;;;;5117464;28;20039;-70
2023/12/06 05:27:40;;;;;;;3.38;3.17;;;1.20;99.90;;;;;;5117535;28;20036;-70
2023/12/06 05:30:06;;;;;;;4.82;4.38;;;1.20;99.90;;;;;;5117291;28;20036;-70
2023/12/06 05:32:32;;;;;;;5.22;4.82;;;1.20;99.90;;;;;;5117319;28;20046;-70
2023/12/06 05:34:57;;;;;;;1.10;1.00;;;1.20;99.90;;;;;;5117173;28;20445;-70
2023/12/06 05:37:23;;;;;;;1.10;1.00;;;1.20;99.90;;;;;;5117763;28;20421;-70
2023/12/06 05:39:48;;;;;;;1.52;1.42;;;1.30;99.90;;;;;;5117085;28;20050;-70
2023/12/06 05:42:16;;;;;;;1.65;1.30;;;1.20;99.90;;;;;;5117240;28;20047;-70
2023/12/06 05:44:42;;;;;;;1.10;1.00;;;1.20;99.90;;;;;;5117088;28;20127;-69
2023/12/06 05:47:07;;;;;;;1.10;1.00;;;1.20;99.90;;;;;;5116887;28;20079;-70
2023/12/06 05:49:33;;;;;;;1.20;1.10;;;1.30;99.90;;;;;;5117151;28;20039;-70
2023/12/06 05:51:58;;;;;;;2.38;2.17;;;1.30;99.90;;;;;;5117006;28;20423;-70
2023/12/06 05:54:24;;;;;;;3.72;2.45;;;1.20;99.90;;;;;;5116856;28;20047;-70
2023/12/06 05:56:49;;;;;;;1.20;1.10;;;1.30;99.90;;;;;;5117104;28;20031;-70
2023/12/06 05:59:15;;;;;;;1.10;1.00;;;1.30;99.90;;;;;;5116711;28;20461;-70
2023/12/06 06:01:41;;;;;;;1.75;1.65;;;1.30;99.90;;;;;;5117418;28;20089;-70
2023/12/06 06:04:06;;;;;;;1.17;1.08;;;1.30;99.90;;;;;;5117120;28;20530;-70
2023/12/06 06:06:36;;;;;;;1.75;1.65;;;1.30;99.90;;;;;;5116965;28;20054;-70
2023/12/06 06:09:02;;;;;;;1.30;1.20;;;1.30;99.90;;;;;;5116709;28;20040;-70
2023/12/06 06:11:27;;;;;;;1.40;1.30;;;1.30;99.90;;;;;;5116347;28;20471;-74
2023/12/06 06:13:54;;;;;;;1.70;1.60;;;1.30;99.90;;;;;;5116414;28;20048;-70
2023/12/06 06:16:20;;;;;;;2.55;2.40;;;1.30;99.90;;;;;;5116233;28;20097;-71
2023/12/06 06:18:46;;;;;;;1.10;1.00;;;1.30;99.90;;;;;;5116405;28;20031;-70
2023/12/06 06:21:11;;;;;;;1.20;1.10;;;1.30;99.90;;;;;;5116665;28;20451;-69
2023/12/06 06:23:37;;;;;;;1.33;1.23;;;1.30;99.90;;;;;;5116326;28;20046;-69
2023/12/06 06:26:03;;;;;;;1.10;1.00;;;1.30;99.90;;;;;;5116334;28;20046;-71
2023/12/06 06:28:29;;;;;;;1.23;1.13;;;1.30;99.90;;;;;;5116240;28;20032;-70
2023/12/06 06:30:55;;;;;;;2.55;2.35;;;1.30;99.90;;;;;;5116506;28;20044;-69
2023/12/06 06:33:21;;;;;;;1.13;1.02;;;1.30;99.90;;;;;;5114989;28;20482;-69
2023/12/06 06:35:46;;;;;;;1.40;1.20;;;1.30;99.90;;;;;;5116152;28;20046;-69
2023/12/06 06:38:12;;;;;;;3.30;2.88;;;1.30;99.90;;;;;;5116060;28;20481;-70
2023/12/06 06:40:37;;;;;;;1.20;1.10;;;1.30;99.90;;;;;;5116212;28;20039;-70
2023/12/06 06:43:05;;;;;;;1.55;1.42;;;1.30;99.90;;;;;;5115875;28;20039;-69
2023/12/06 06:45:31;;;;;;;1.10;1.00;;;1.30;99.90;;;;;;5116418;28;20047;-70
2023/12/06 06:47:57;;;;;;;1.10;1.00;;;1.30;99.90;;;;;;5115829;28;20042;-70
2023/12/06 06:50:23;;;;;;;1.40;1.30;;;1.30;99.90;;;;;;5116140;28;20177;-70
2023/12/06 06:52:49;;;;;;;1.10;1.00;;;1.30;99.90;;;;;;5115857;28;20120;-70
2023/12/06 06:55:15;;;;;;;1.63;1.52;;;1.30;99.90;;;;;;5115803;28;20086;-70
2023/12/06 06:57:40;;;;;;;1.33;1.23;;;1.20;99.90;;;;;;5115606;28;20088;-72
2023/12/06 07:00:06;;;;;;;3.05;2.55;;;1.30;99.90;;;;;;5115605;28;20065;-72
2023/12/06 07:02:32;;;;;;;1.10;1.00;;;1.30;99.90;;;;;;5115632;28;20046;-70
2023/12/06 07:05:00;;;;;;;1.02;0.93;;;1.30;99.90;;;;;;5115878;28;20039;-69
2023/12/06 07:07:26;;;;;;;1.20;1.10;;;1.30;99.90;;;;;;5115543;28;20043;-70
2023/12/06 07:09:51;;;;;;;1.10;1.00;;;1.30;99.90;;;;;;5115474;28;20437;-68
2023/12/06 07:12:18;;;;;;;1.20;1.10;;;1.30;99.90;;;;;;5115202;28;20061;-74
2023/12/06 07:14:43;;;;;;;1.67;1.27;;;1.40;99.90;;;;;;5115086;28;20046;-71
2023/12/06 07:17:09;;;;;;;1.10;1.00;;;1.40;99.90;;;;;;5115291;28;20035;-70
2023/12/06 07:19:34;;;;;;;2.45;1.52;;;1.40;99.90;;;;;;5115208;28;20036;-73
2023/12/06 07:22:00;;;;;;;1.10;1.00;;;1.40;99.90;;;;;;5115921;28;20051;-70
2023/12/06 07:24:26;;;;;;;1.40;1.30;;;1.40;99.90;;;;;;5115239;28;20077;-77
2023/12/06 07:26:51;;;;;;;2.17;2.08;;;1.40;99.90;;;;;;5115103;28;20031;-69
2023/12/06 07:29:17;;;;;;;1.20;1.10;;;1.40;99.90;;;;;;5114961;28;20039;-68
2023/12/06 07:31:42;;;;;;;1.13;1.02;;;1.40;99.90;;;;;;5114303;28;20040;-72
2023/12/06 07:34:08;;;;;;;1.10;1.00;;;1.40;99.90;;;;;;5115059;28;20119;-72
2023/12/06 07:36:34;;;;;;;1.20;1.10;;;1.40;99.90;;;;;;5114835;28;20481;-69
2023/12/06 07:38:59;;;;;;;1.27;1.17;;;1.40;99.90;;;;;;5113508;28;20075;-69
2023/12/06 07:41:25;;;;;;;1.20;1.10;;;1.40;99.90;;;;;;5113852;28;20035;-72
2023/12/06 07:43:51;;;;;;;1.20;1.10;;;1.40;99.90;;;;;;5112990;28;20483;-69
2023/12/06 07:46:16;;;;;;;1.10;1.00;;;1.40;99.90;;;;;;5113054;28;20104;-68
2023/12/06 07:48:42;;;;;;;1.38;1.27;;;1.40;99.90;;;;;;5113687;28;20046;-70
2023/12/06 07:51:07;;;;;;;1.20;1.10;;;1.40;99.90;;;;;;5114251;28;20127;-72
2023/12/06 07:53:33;;;;;;;1.35;1.25;;;1.40;99.90;;;;;;5114720;28;20058;-71
2023/12/06 07:55:59;;;;;;;1.20;1.10;;;1.50;99.90;;;;;;5114863;28;20092;-69
2023/12/06 07:58:25;;;;;;;1.10;1.00;;;1.50;99.90;;;;;;5114883;28;20451;-71
2023/12/06 08:00:50;;;;;;;1.63;1.52;;;1.50;99.90;;;;;;5114872;28;20379;-70
2023/12/06 08:03:16;;;;;;;1.10;1.00;;;1.50;99.90;;;;;;5114544;28;20035;-72
2023/12/06 08:05:42;;;;;;;1.10;1.00;;;1.50;99.90;;;;;;5114493;28;20046;-70
2023/12/06 08:08:08;;;;;;;1.63;1.52;;;1.50;99.90;;;;;;5114473;28;20504;-70
2023/12/06 08:10:34;;;;;;;1.20;1.10;;;1.60;99.90;;;;;;5114473;27;20039;-72
2023/12/06 08:13:00;;;;;;;1.27;1.17;;;1.60;99.90;;;;;;5114378;28;20349;-69
2023/12/06 08:15:28;;;;;;;1.40;1.30;;;1.60;99.90;;;;;;5114330;28;20096;-70
2023/12/06 08:17:55;;;;;;;1.42;1.33;;;1.60;99.90;;;;;;5113995;28;20753;-73
2023/12/06 08:20:20;;;;;;;2.42;1.90;;;1.60;99.90;;;;;;5113993;28;20500;-72
2023/12/06 08:22:46;;;;;;;1.20;1.10;;;1.60;99.90;;;;;;5114612;28;20082;-71
2023/12/06 08:25:11;;;;;;;3.58;2.85;;;1.60;99.90;;;;;;5113997;28;20490;-72
2023/12/06 08:27:37;;;;;;;1.30;1.20;;;1.60;99.90;;;;;;5114418;28;20093;-70
2023/12/06 08:30:03;;;;;;;1.10;1.00;;;2.40;99.90;;;;;;5114674;28;20095;-68
2023/12/06 08:32:29;;;;;;;1.10;1.00;;;1.60;99.90;;;;;;5114129;28;20035;-72
2023/12/06 08:34:55;;;;;;;1.27;1.17;;;1.60;99.90;;;;;;5114125;28;20375;-70
2023/12/06 08:37:20;;;;;;;1.20;1.10;;;1.60;99.90;;;;;;5114101;28;20092;-70
2023/12/06 08:39:47;;;;;;;2.10;1.95;;;1.70;99.90;;;;;;5114011;28;20035;-69
2023/12/06 08:42:14;;;;;;;1.20;1.10;;;1.60;99.90;;;;;;5114288;28;20050;-72
2023/12/06 08:44:44;;;;;;;1.88;1.75;;;1.70;99.90;;;;;;5114503;28;20043;-69
2023/12/06 08:47:10;;;;;;;1.10;1.00;;;1.70;99.90;;;;;;5114142;28;20043;-69
2023/12/06 08:49:39;;;;;;;1.40;1.30;;;1.70;99.90;;;;;;5112972;28;20386;-69
2023/12/06 08:52:08;;;;;;;1.38;1.27;;;1.70;99.90;;;;;;5114239;28;20130;-69
2023/12/06 08:54:34;;;;;;;1.20;1.10;;;1.70;99.90;;;;;;5113824;28;20093;-70
2023/12/06 08:57:00;;;;;;;1.30;1.20;;;1.80;99.90;;;;;;5116568;28;20039;-73
2023/12/06 08:59:26;;;;;;;1.35;1.25;;;1.70;99.90;;;;;;5117682;28;20479;-70
2023/12/06 09:01:51;;;;;;;1.13;1.02;;;1.80;99.90;;;;;;5118278;28;20067;-70
2023/12/06 09:04:17;;;;;;;1.92;1.55;;;1.80;99.90;;;;;;5117927;28;20035;-73
2023/12/06 09:06:43;;;;;;;7.30;1.60;;;1.80;99.90;;;;;;5117900;28;20475;-72
2023/12/06 09:09:09;;;;;;;1.20;1.10;;;1.80;99.90;;;;;;5118183;28;20036;-71
2023/12/06 09:11:34;;;;;;;1.10;1.00;;;1.80;99.90;;;;;;5117810;28;20038;-72
2023/12/06 09:14:00;;;;;;;1.45;1.35;;;1.90;99.90;;;;;;5117762;28;20038;-73
2023/12/06 09:16:25;;;;;;;1.10;1.00;;;1.90;99.90;;;;;;5117560;28;20118;-73
2023/12/06 09:18:51;;;;;;;1.10;1.00;;;1.90;99.90;;;;;;5117993;28;20035;-73
2023/12/06 09:21:17;;;;;;;1.10;1.00;;;2.60;99.90;;;;;;5116351;28;20360;-71
2023/12/06 09:23:42;;;;;;;1.10;1.00;;;1.90;99.90;;;;;;5117613;28;20044;-72
2023/12/06 09:26:09;;;;;;;1.20;1.10;;;2.00;99.90;;;;;;5117493;28;20118;-71
2023/12/06 09:28:35;;;;;;;1.10;1.00;;;2.00;99.90;;;;;;5117483;28;20062;-76
2023/12/06 09:31:01;;;;;;;2.55;2.35;;;2.00;99.90;;;;;;5117946;27;20127;-75
2023/12/06 09:33:26;;;;;;;1.20;1.10;;;2.00;99.90;;;;;;5117412;28;20114;-73
2023/12/06 09:35:52;;;;;;;3.00;2.28;;;2.10;99.90;;;;;;5117293;28;20088;-70
2023/12/06 09:38:18;;;;;;;1.13;1.02;;;2.10;99.90;;;;;;5117352;28;20043;-72
2023/12/06 09:40:43;;;;;;;1.65;1.20;;;2.10;99.90;;;;;;5117490;28;20463;-71
2023/12/06 09:43:10;;;;;;;1.58;1.48;;;2.10;99.90;;;;;;5116845;28;20046;-69
2023/12/06 09:45:37;;;;;;;1.38;1.27;;;2.10;99.90;;;;;;5116963;28;20058;-72
2023/12/06 09:48:04;;;;;;;1.10;1.00;;;2.10;99.90;;;;;;5117336;28;20047;-70
2023/12/06 09:50:30;;;;;;;;;;;2.10;99.90;;;;;;5117509;28;20050;-70
2023/12/06 09:52:55;;;;;;;3.83;1.30;;;2.10;99.90;;;;;;5116909;28;20003;-73
2023/12/06 09:55:26;;;;;;;1.30;1.20;;;2.20;99.90;;;;;;5116820;28;20126;-72
2023/12/06 09:57:52;;;;;;;4.90;3.30;;;2.20;99.90;;;;;;5116984;28;20077;-71
2023/12/06 10:00:18;;;;;;;1.20;1.10;;;2.20;99.90;;;;;;5115887;28;20046;-70
2023/12/06 10:02:51;;;;;;;1.20;1.10;;;2.20;99.90;;;;;;5116828;28;20043;-73
2023/12/06 10:05:17;;;;;;;0.90;0.90;;;2.30;99.90;;;;;;5115789;28;20035;-72
2023/12/06 10:07:43;;;;;;;0.93;0.90;;;2.30;99.90;;;;;;5115775;28;20116;-73
2023/12/06 10:10:15;;;;;;;1.17;1.07;;;2.30;99.90;;;;;;5116598;27;20051;-72
2023/12/06 10:12:47;;;;;;;0.95;0.95;;;2.30;99.90;;;;;;5116732;28;20043;-73
2023/12/06 10:15:13;;;;;;;1.10;1.00;;;2.30;99.90;;;;;;5098679;28;20058;-70
2023/12/06 10:17:39;;;;;;;1.40;1.30;;;2.30;99.90;;;;;;5116609;28;20047;-73
2023/12/06 10:20:05;;;;;;;1.20;1.10;;;2.40;99.90;;;;;;5116276;28;20080;-72
2023/12/06 10:22:33;;;;;;;1.05;1.00;;;2.40;99.90;;;;;;5116526;28;20069;-73
2023/12/06 10:25:00;;;;;;;1.10;1.00;;;2.40;99.90;;;;;;5116732;28;20044;-73
2023/12/06 10:27:29;;;;;;;1.10;1.00;;;2.40;99.90;;;;;;5116352;28;20130;-74
2023/12/06 10:29:55;;;;;;;1.10;1.00;;;2.40;99.90;;;;;;5116331;28;20378;-74
2023/12/06 10:32:22;;;;;;;1.20;1.10;;;2.50;99.90;;;;;;5115026;28;20131;-73
2023/12/06 10:34:48;;;;;;;1.20;1.10;;;2.50;99.90;;;;;;5116391;28;20384;-72
2023/12/06 10:37:19;;;;;;;1.10;1.00;;;2.50;99.90;;;;;;5116256;28;20031;-70
2023/12/06 10:39:50;;;;;;;1.10;1.00;;;3.20;99.90;;;;;;5116079;28;20046;-71
2023/12/06 10:42:22;;;;;;;1.10;1.00;;;2.50;99.90;;;;;;5116125;28;20047;-73
2023/12/06 10:44:48;;;;;;;1.35;1.25;;;2.50;99.90;;;;;;5116277;28;20039;-70
2023/12/06 10:47:15;;;;;;;1.10;1.00;;;3.20;99.90;;;;;;5115977;28;20039;-69
2023/12/06 10:49:42;;;;;;;1.10;1.00;;;2.50;99.90;;;;;;5115844;28;20075;-71
2023/12/06 10:52:08;;;;;;;;;;;2.50;99.90;;;;;;5116158;28;20039;-71
2023/12/06 10:54:34;;;;;;;0.90;0.90;;;2.50;99.90;;;;;;5116439;28;19923;-73
2023/12/06 10:57:03;;;;;;;0.90;0.90;;;2.50;99.90;;;;;;5115766;28;20471;-72
2023/12/06 10:59:30;;;;;;;1.20;1.10;;;2.50;99.90;;;;;;5115634;28;20126;-79
2023/12/06 11:01:57;;;;;;;1.30;1.20;;;2.50;99.90;;;;;;5115511;28;20039;-72
2023/12/06 11:04:30;;;;;;;1.58;1.48;;;2.60;99.90;;;;;;5115277;28;20039;-74
2023/12/06 11:07:00;;;;;;;1.05;1.00;;;2.60;99.90;;;;;;5115792;28;20031;-73
2023/12/06 11:09:40;;;;;;;1.95;1.85;;;2.60;99.90;;;;;;5115828;28;20043;-73
2023/12/06 11:12:52;;;;;;;1.30;1.20;;;2.60;99.90;;;;;;5115726;28;20042;-71
2023/12/06 11:15:57;;;;;;;1.15;1.05;;;2.60;99.90;;;;;;5115588;28;20031;-71
2023/12/06 11:18:35;;;;;;;0.90;0.90;;;2.60;99.90;;;;;;5114510;28;20082;-74
2023/12/06 11:21:04;;;;;;;1.45;1.35;;;2.60;99.90;;;;;;5115009;28;20055;-74
2023/12/06 11:23:30;;;;;;;1.20;1.10;;;2.60;99.90;;;;;;5115692;28;20046;-71
2023/12/06 11:25:56;;;;;;;1.02;0.95;;;2.60;99.90;;;;;;5115473;28;20036;-74
2023/12/06 11:28:22;;;;;;;0.90;0.90;;;2.60;99.90;;;;;;5115198;28;20463;-72
2023/12/06 11:30:48;;;;;;;1.10;1.00;;;2.70;99.90;;;;;;5114964;28;20490;-75
2023/12/06 11:33:14;;;;;;;1.45;1.35;;;2.70;99.90;;;;;;5115243;28;20418;-74
2023/12/06 11:36:01;;;;;;;1.10;1.00;;;2.70;99.90;;;;;;5114802;28;20122;-71
2023/12/06 11:38:37;;;;;;;1.77;1.67;;;2.70;99.90;;;;;;5114879;28;20047;-69
2023/12/06 11:41:06;;;;;;;1.10;1.00;;;2.70;99.90;;;;;;5114803;28;20044;-70
2023/12/06 11:43:38;;;;;;;1.02;1.00;;;2.70;99.90;;;;;;5114714;28;20035;-71
2023/12/06 11:46:04;;;;;;;1.35;1.25;;;2.80;99.90;;;;;;5110795;28;20040;-70
2023/12/06 11:48:32;;;;;;;2.20;2.08;;;2.80;99.90;;;;;;5114456;28;20483;-71
2023/12/06 11:51:00;;;;;;;1.30;1.20;;;2.80;99.90;;;;;;5114225;28;20079;-69
2023/12/06 11:53:29;;;;;;;1.40;1.30;;;2.80;99.90;;;;;;5114801;28;20075;-71
2023/12/06 11:55:55;;;;;;;1.30;1.20;;;3.00;99.90;;;;;;5113358;28;20039;-72
2023/12/06 11:58:22;;;;;;;1.83;1.73;;;2.80;99.90;;;;;;5114688;28;20031;-75
2023/12/06 12:00:52;;;;;;;1.33;1.23;;;2.80;99.90;;;;;;5114536;28;20058;-76
2023/12/06 12:03:18;;;;;;;1.85;1.60;;;2.80;99.90;;;;;;5114637;28;20071;-72
2023/12/06 12:05:45;;;;;;;1.30;1.20;;;2.80;99.90;;;;;;5114743;28;20031;-73
2023/12/06 12:08:11;;;;;;;1.13;1.02;;;2.90;99.90;;;;;;5114308;28;20520;-71
2023/12/06 12:10:37;;;;;;;1.20;1.10;;;2.90;99.90;;;;;;5114457;28;20044;-72
2023/12/06 12:13:03;;;;;;;1.35;1.25;;;2.90;99.90;;;;;;5114636;28;20418;-74
2023/12/06 12:15:30;;;;;;;1.10;1.00;;;2.90;99.90;;;;;;5114309;28;20038;-72
2023/12/06 12:17:56;;;;;;;0.90;0.90;;;2.90;99.90;;;;;;5114304;28;20043;-71
2023/12/06 12:20:22;;;;;;;1.20;1.10;;;3.30;99.90;;;;;;5114883;28;20348;-71
2023/12/06 12:22:50;;;;;;;1.10;1.00;;;3.00;99.90;;;;;;5114594;28;20043;-70
2023/12/06 12:25:19;;;;;;;1.10;1.00;;;3.00;99.90;;;;;;5114459;28;20035;-70
2023/12/06 12:27:47;;;;;;;1.10;1.00;;;3.00;99.90;;;;;;5114253;28;20070;-77
2023/12/06 12:30:13;;;;;;;0.90;0.90;;;3.00;99.90;;;;;;5113543;28;20137;-72
2023/12/06 12:32:52;;;;;;;1.15;1.05;;;3.00;99.90;;;;;;5114497;28;20035;-73
2023/12/06 12:35:19;;;;;;;1.45;1.35;;;3.00;99.90;;;;;;5114760;28;20545;-71
2023/12/06 12:37:46;;;;;;;0.95;0.95;;;3.10;99.90;;;;;;5114129;28;20036;-71
2023/12/06 12:40:13;;;;;;;5.45;2.38;;;3.10;99.90;;;;;;5113991;28;20564;-69
2023/12/06 12:42:40;;;;;;;1.00;1.00;;;3.10;99.90;;;;;;5114035;28;20040;-72
2023/12/06 12:45:14;;;;;;;15.52;2.40;;;3.10;99.90;;;;;;5111903;28;20500;-74
2023/12/06 12:47:40;;;;;;;0.90;0.90;;;3.10;99.90;;;;;;5113655;28;20039;-72
2023/12/06 12:50:09;;;;;;;1.20;1.10;;;3.10;99.90;;;;;;5114075;28;20431;-72
2023/12/06 12:52:40;;;;;;;1.90;1.77;;;3.10;99.90;;;;;;5113869;28;20119;-72
2023/12/06 12:55:06;;;;;;;2.45;1.10;;;3.10;99.90;;;;;;5112714;28;20054;-73